createdAt,value
2019-05-06T00:00:55.380Z,99.90
2019-05-06T00:03:16.030Z,99.90
2019-05-06T00:05:45.737Z,99.90
2019-05-06T00:08:15.475Z,99.90
2019-05-06T00:10:45.134Z,99.90
2019-05-06T00:13:14.812Z,99.90
2019-05-06T00:15:44.495Z,99.90
2019-05-06T00:18:14.167Z,99.90
2019-05-06T00:20:43.950Z,99.90
2019-05-06T00:23:25.017Z,99.90
2019-05-06T00:26:13.670Z,99.90
2019-05-06T00:28:56.015Z,99.90
2019-05-06T00:31:25.775Z,99.90
2019-05-06T00:33:55.486Z,99.90
2019-05-06T00:36:25.150Z,99.90
2019-05-06T00:38:58.067Z,99.90
2019-05-06T00:41:29.707Z,99.90
2019-05-06T00:43:59.419Z,99.90
2019-05-06T00:46:29.131Z,99.90
2019-05-06T00:48:58.893Z,99.90
2019-05-06T00:51:28.556Z,99.90
2019-05-06T00:54:06.750Z,99.90
2019-05-06T00:56:36.448Z,99.90
2019-05-06T00:59:06.093Z,99.90
2019-05-06T01:01:35.787Z,99.90
2019-05-06T01:04:05.871Z,99.90
2019-05-06T01:06:35.541Z,99.90
2019-05-06T01:09:10.552Z,99.90
2019-05-06T01:11:40.503Z,99.90
2019-05-06T01:14:15.188Z,99.90
2019-05-06T01:16:44.970Z,99.90
2019-05-06T01:19:14.728Z,99.90
2019-05-06T01:21:44.792Z,99.90
2019-05-06T01:24:14.855Z,99.90
2019-05-06T01:26:44.584Z,99.90
2019-05-06T01:29:14.671Z,99.90
2019-05-06T01:31:46.117Z,99.90
2019-05-06T01:34:16.168Z,99.90
2019-05-06T01:36:45.917Z,99.90
2019-05-06T01:39:34.026Z,99.90
2019-05-06T01:42:14.691Z,99.90
2019-05-06T01:44:44.415Z,99.90
2019-05-06T01:47:14.605Z,99.90
2019-05-06T01:49:44.496Z,99.90
2019-05-06T01:52:14.682Z,99.90
2019-05-06T01:54:44.571Z,99.90
2019-05-06T01:57:14.264Z,99.90
2019-05-06T01:59:44.419Z,99.90
2019-05-06T02:02:14.477Z,99.90
2019-05-06T02:04:44.439Z,99.90
2019-05-06T02:07:14.576Z,99.90
2019-05-06T02:09:44.887Z,99.90
2019-05-06T02:12:14.936Z,99.90
2019-05-06T02:14:44.629Z,99.90
2019-05-06T02:17:14.528Z,99.90
2019-05-06T02:19:44.347Z,99.90
2019-05-06T02:22:24.095Z,99.90
2019-05-06T02:25:09.087Z,99.90
2019-05-06T02:27:38.793Z,99.90
2019-05-06T02:30:31.238Z,99.90
2019-05-06T02:33:10.409Z,99.90
2019-05-06T02:35:54.904Z,99.90
2019-05-06T02:38:33.261Z,99.90
2019-05-06T02:40:57.528Z,99.90
2019-05-06T02:43:27.205Z,99.90
2019-05-06T02:45:56.886Z,99.90
2019-05-06T02:48:45.487Z,99.90
2019-05-06T02:51:17.757Z,99.90
2019-05-06T02:53:47.472Z,99.90
2019-05-06T02:56:17.189Z,99.90
2019-05-06T02:58:46.882Z,99.90
2019-05-06T03:01:16.610Z,99.90
2019-05-06T03:03:46.364Z,99.90
2019-05-06T03:06:16.020Z,99.90
2019-05-06T03:08:45.779Z,99.90
2019-05-06T03:11:15.461Z,99.90
2019-05-06T03:13:45.132Z,99.90
2019-05-06T03:16:14.837Z,99.90
2019-05-06T03:18:44.489Z,99.90
2019-05-06T03:21:33.792Z,99.90
2019-05-06T03:24:23.444Z,99.90
2019-05-06T03:26:56.980Z,99.90
2019-05-06T03:29:25.514Z,99.90
2019-05-06T03:31:56.872Z,99.90
2019-05-06T03:34:49.176Z,99.90
2019-05-06T03:36:58.219Z,99.90
2019-05-06T03:39:27.961Z,99.90
2019-05-06T03:41:57.668Z,99.90
2019-05-06T03:44:27.359Z,99.90
2019-05-06T03:47:23.453Z,99.90
2019-05-06T03:49:54.546Z,99.90
2019-05-06T03:52:27.971Z,99.90
2019-05-06T03:54:58.634Z,99.90
2019-05-06T03:57:29.196Z,99.90
2019-05-06T04:00:04.249Z,99.90
2019-05-06T04:02:33.595Z,99.90
2019-05-06T04:05:04.275Z,99.90
2019-05-06T04:07:35.298Z,99.00
2019-05-06T04:10:05.552Z,98.00
2019-05-06T04:12:37.726Z,96.90
2019-05-06T04:15:07.910Z,96.30
2019-05-06T04:17:44.211Z,96.00
2019-05-06T04:20:34.258Z,95.10
2019-05-06T04:23:13.504Z,94.00
2019-05-06T04:26:14.250Z,92.50
2019-05-06T04:28:44.149Z,92.00
2019-05-06T04:31:14.200Z,91.00
2019-05-06T04:33:55.529Z,90.70
2019-05-06T04:36:15.246Z,90.60
2019-05-06T04:38:44.970Z,90.50
2019-05-06T04:41:14.951Z,90.40
2019-05-06T04:43:45.941Z,90.30
2019-05-06T04:46:16.870Z,90.20
2019-05-06T04:48:46.907Z,90.50
2019-05-06T04:51:16.738Z,90.40
2019-05-06T04:53:47.615Z,90.70
2019-05-06T04:56:17.335Z,90.60
2019-05-06T04:58:47.098Z,90.60
2019-05-06T05:01:17.027Z,90.30
2019-05-06T05:03:46.870Z,90.20
2019-05-06T05:06:16.748Z,90.30
2019-05-06T05:08:47.093Z,90.60
2019-05-06T05:11:44.945Z,90.60
2019-05-06T05:14:25.799Z,90.50
2019-05-06T05:17:14.785Z,90.20
2019-05-06T05:19:44.529Z,90.40
2019-05-06T05:22:14.210Z,90.40
2019-05-06T05:24:44.948Z,90.50
2019-05-06T05:27:15.286Z,90.00
2019-05-06T05:29:45.097Z,88.00
2019-05-06T05:32:14.803Z,88.30
2019-05-06T05:34:45.209Z,86.60
2019-05-06T05:37:14.936Z,87.00
2019-05-06T05:39:44.643Z,85.70
2019-05-06T05:42:39.391Z,85.90
2019-05-06T05:45:10.177Z,83.60
2019-05-06T05:47:42.398Z,81.30
2019-05-06T05:50:22.659Z,78.80
2019-05-06T05:52:52.028Z,79.30
2019-05-06T05:55:22.053Z,78.20
2019-05-06T05:57:52.063Z,79.40
2019-05-06T06:00:24.030Z,76.50
2019-05-06T06:02:53.836Z,76.80
2019-05-06T06:05:23.679Z,73.90
2019-05-06T06:07:53.408Z,73.00
2019-05-06T06:10:44.373Z,70.50
2019-05-06T06:13:14.110Z,69.90
2019-05-06T06:16:05.890Z,69.90
2019-05-06T06:19:00.645Z,67.90
2019-05-06T06:21:42.644Z,66.80
2019-05-06T06:24:23.457Z,67.90
2019-05-06T06:26:53.261Z,67.00
2019-05-06T06:29:23.047Z,64.00
2019-05-06T06:32:30.000Z,62.40
2019-05-06T06:35:19.239Z,63.30
2019-05-06T06:38:12.327Z,61.50
2019-05-06T06:40:42.567Z,60.90
2019-05-06T06:43:17.161Z,61.20
2019-05-06T06:45:46.948Z,60.40
2019-05-06T06:48:16.661Z,60.60
2019-05-06T06:50:46.504Z,61.60
2019-05-06T06:53:16.863Z,60.30
2019-05-06T06:55:47.940Z,60.00
2019-05-06T06:58:37.498Z,59.10
2019-05-06T07:01:23.598Z,58.40
2019-05-06T07:04:04.683Z,58.20
2019-05-06T07:06:47.802Z,58.60
2019-05-06T07:09:17.618Z,58.00
2019-05-06T07:11:47.345Z,57.60
2019-05-06T07:14:17.055Z,58.40
2019-05-06T07:16:46.788Z,59.00
2019-05-06T07:19:19.840Z,58.90
2019-05-06T07:21:59.319Z,58.50
2019-05-06T07:24:29.171Z,58.20
2019-05-06T07:27:12.526Z,57.80
2019-05-06T07:29:48.144Z,57.60
2019-05-06T07:32:13.803Z,57.30
2019-05-06T07:34:43.536Z,56.60
2019-05-06T07:37:13.327Z,56.50
2019-05-06T07:39:43.249Z,55.50
2019-05-06T07:42:19.391Z,55.20
2019-05-06T07:45:08.076Z,55.40
2019-05-06T07:47:45.948Z,55.70
2019-05-06T07:50:15.753Z,54.50
2019-05-06T07:53:04.388Z,53.70
2019-05-06T07:55:34.188Z,53.30
2019-05-06T07:58:04.009Z,53.20
2019-05-06T08:00:34.270Z,53.40
2019-05-06T08:03:03.987Z,53.20
2019-05-06T08:05:33.739Z,53.50
2019-05-06T08:08:03.880Z,53.10
2019-05-06T08:10:34.283Z,53.10
2019-05-06T08:13:03.968Z,53.00
2019-05-06T08:15:33.702Z,52.80
2019-05-06T08:18:03.768Z,51.50
2019-05-06T08:20:42.845Z,51.60
2019-05-06T08:23:22.070Z,50.50
2019-05-06T08:25:57.625Z,49.30
2019-05-06T08:28:37.502Z,50.30
2019-05-06T08:30:55.545Z,50.70
2019-05-06T08:33:27.662Z,49.00
2019-05-06T08:36:08.933Z,47.50
2019-05-06T08:38:28.166Z,46.90
2019-05-06T08:40:57.903Z,48.20
2019-05-06T08:43:27.636Z,47.00
2019-05-06T08:45:57.342Z,47.70
2019-05-06T08:48:27.035Z,48.00
2019-05-06T08:51:22.371Z,47.50
2019-05-06T08:54:03.291Z,47.70
2019-05-06T08:56:33.015Z,47.40
2019-05-06T08:59:03.234Z,47.90
2019-05-06T09:01:46.604Z,47.10
2019-05-06T09:04:16.591Z,47.00
2019-05-06T09:06:46.739Z,46.80
2019-05-06T09:09:16.449Z,46.00
2019-05-06T09:11:46.251Z,46.40
2019-05-06T09:14:16.109Z,45.40
2019-05-06T09:16:45.821Z,43.70
2019-05-06T09:19:15.498Z,44.00
2019-05-06T09:21:46.355Z,44.50
2019-05-06T09:24:16.260Z,44.80
2019-05-06T09:26:52.196Z,45.60
2019-05-06T09:29:37.984Z,45.70
2019-05-06T09:32:22.522Z,45.90
2019-05-06T09:35:02.888Z,45.90
2019-05-06T09:37:42.876Z,45.40
2019-05-06T09:40:22.626Z,45.30
2019-05-06T09:42:52.062Z,45.80
2019-05-06T09:45:22.775Z,46.10
2019-05-06T09:48:09.131Z,46.90
2019-05-06T09:50:46.104Z,47.60
2019-05-06T09:53:18.353Z,46.90
2019-05-06T09:56:06.942Z,47.00
2019-05-06T09:58:42.617Z,46.50
2019-05-06T10:01:13.133Z,45.10
2019-05-06T10:03:42.823Z,45.30
2019-05-06T10:06:13.231Z,45.20
2019-05-06T10:08:43.315Z,44.70
2019-05-06T10:11:13.006Z,44.00
2019-05-06T10:13:43.144Z,43.60
2019-05-06T10:16:13.272Z,42.10
2019-05-06T10:18:43.039Z,39.60
2019-05-06T10:21:12.810Z,39.50
2019-05-06T10:23:42.576Z,39.20
2019-05-06T10:26:12.929Z,39.90
2019-05-06T10:28:48.125Z,40.30
2019-05-06T10:31:18.804Z,39.70
2019-05-06T10:34:13.284Z,40.70
2019-05-06T10:36:53.281Z,40.50
2019-05-06T10:39:26.210Z,39.70
2019-05-06T10:42:13.304Z,38.80
2019-05-06T10:45:08.164Z,39.80
2019-05-06T10:47:37.901Z,40.30
2019-05-06T10:50:07.681Z,40.20
2019-05-06T10:52:56.408Z,40.10
2019-05-06T10:55:28.314Z,40.40
2019-05-06T10:57:58.343Z,41.50
2019-05-06T11:00:28.065Z,41.40
2019-05-06T11:03:16.853Z,41.50
2019-05-06T11:05:47.126Z,40.90
2019-05-06T11:08:16.802Z,40.70
2019-05-06T11:10:46.536Z,40.90
2019-05-06T11:13:16.874Z,41.20
2019-05-06T11:15:46.597Z,41.20
2019-05-06T11:18:16.420Z,42.00
2019-05-06T11:20:46.163Z,42.10
2019-05-06T11:23:15.848Z,42.50
2019-05-06T11:25:45.521Z,41.90
2019-05-06T11:28:35.229Z,42.40
2019-05-06T11:31:28.787Z,42.20
2019-05-06T11:34:26.331Z,41.90
2019-05-06T11:37:22.976Z,41.30
2019-05-06T11:39:52.889Z,41.70
2019-05-06T11:42:31.687Z,42.20
2019-05-06T11:44:55.104Z,42.30
2019-05-06T11:47:24.872Z,42.20
2019-05-06T11:49:57.046Z,41.00
2019-05-06T11:52:26.882Z,41.50
2019-05-06T11:55:02.053Z,41.70
2019-05-06T11:57:32.615Z,41.90
2019-05-06T12:00:03.132Z,42.70
2019-05-06T12:02:33.138Z,42.30
2019-05-06T12:05:02.805Z,42.20
2019-05-06T12:07:33.186Z,43.00
2019-05-06T12:10:03.115Z,43.30
2019-05-06T12:12:32.831Z,42.40
2019-05-06T12:15:04.266Z,43.10
2019-05-06T12:17:34.342Z,43.40
2019-05-06T12:20:04.206Z,43.90
2019-05-06T12:22:37.021Z,42.70
2019-05-06T12:25:11.695Z,43.10
2019-05-06T12:27:46.750Z,43.80
2019-05-06T12:30:23.104Z,43.70
2019-05-06T12:33:09.717Z,43.70
2019-05-06T12:35:42.792Z,44.10
2019-05-06T12:38:26.455Z,44.40
2019-05-06T12:40:47.444Z,44.10
2019-05-06T12:43:34.624Z,44.20
2019-05-06T12:46:17.195Z,44.60
2019-05-06T12:48:46.887Z,44.50
2019-05-06T12:51:17.981Z,44.80
2019-05-06T12:53:47.695Z,44.90
2019-05-06T12:56:17.436Z,45.10
2019-05-06T12:58:47.234Z,44.70
2019-05-06T13:01:16.922Z,44.50
2019-05-06T13:03:46.615Z,44.40
2019-05-06T13:06:16.469Z,44.60
2019-05-06T13:08:58.865Z,44.50
2019-05-06T13:11:17.537Z,44.50
2019-05-06T13:13:57.493Z,44.50
2019-05-06T13:16:19.411Z,44.80
2019-05-06T13:18:51.788Z,44.10
2019-05-06T13:21:22.326Z,44.00
2019-05-06T13:23:58.538Z,44.20
2019-05-06T13:26:28.287Z,44.70
2019-05-06T13:29:04.263Z,44.40
2019-05-06T13:31:33.174Z,44.00
2019-05-06T13:34:08.725Z,43.80
2019-05-06T13:36:38.511Z,43.70
2019-05-06T13:39:32.689Z,43.50
2019-05-06T13:41:41.955Z,43.40
2019-05-06T13:44:15.903Z,43.10
2019-05-06T13:46:55.597Z,42.90
2019-05-06T13:49:37.221Z,42.10
2019-05-06T13:52:09.116Z,42.00
2019-05-06T13:54:38.947Z,42.00
2019-05-06T13:57:08.740Z,41.30
2019-05-06T13:59:38.432Z,41.60
2019-05-06T14:02:34.018Z,42.00
2019-05-06T14:05:05.237Z,42.30
2019-05-06T14:07:34.978Z,42.30
2019-05-06T14:10:05.593Z,42.10
2019-05-06T14:12:35.323Z,42.10
2019-05-06T14:15:05.934Z,41.60
2019-05-06T14:17:35.723Z,41.30
2019-05-06T14:20:06.798Z,40.90
2019-05-06T14:22:36.643Z,40.90
2019-05-06T14:25:25.477Z,40.90
2019-05-06T14:27:58.951Z,41.10
2019-05-06T14:30:46.316Z,40.80
2019-05-06T14:33:17.619Z,40.80
2019-05-06T14:35:47.332Z,39.50
2019-05-06T14:38:17.065Z,39.40
2019-05-06T14:41:26.815Z,39.80
2019-05-06T14:43:54.973Z,39.20
2019-05-06T14:46:24.787Z,39.80
2019-05-06T14:48:54.571Z,40.30
2019-05-06T14:51:24.382Z,39.80
2019-05-06T14:53:54.091Z,40.00
2019-05-06T14:56:46.053Z,40.20
2019-05-06T14:59:23.428Z,39.80
2019-05-06T15:01:59.212Z,40.20
2019-05-06T15:04:28.976Z,40.30
2019-05-06T15:06:58.736Z,40.70
2019-05-06T15:09:28.471Z,40.40
2019-05-06T15:11:58.732Z,40.20
2019-05-06T15:14:28.441Z,40.60
2019-05-06T15:16:58.131Z,40.90
2019-05-06T15:19:27.957Z,40.90
2019-05-06T15:21:57.679Z,40.70
2019-05-06T15:24:27.405Z,41.20
2019-05-06T15:26:57.184Z,41.40
2019-05-06T15:29:26.884Z,41.40
2019-05-06T15:32:24.638Z,41.50
2019-05-06T15:35:28.613Z,41.70
2019-05-06T15:38:02.236Z,42.00
2019-05-06T15:40:36.426Z,42.20
2019-05-06T15:43:03.737Z,41.80
2019-05-06T15:45:33.521Z,42.40
2019-05-06T15:48:03.276Z,42.60
2019-05-06T15:50:33.018Z,42.40
2019-05-06T15:53:02.777Z,42.40
2019-05-06T15:55:32.823Z,42.50
2019-05-06T15:58:03.615Z,42.70
2019-05-06T16:00:34.299Z,43.00
2019-05-06T16:03:04.234Z,42.00
2019-05-06T16:05:34.423Z,42.30
2019-05-06T16:08:04.743Z,42.40
2019-05-06T16:10:50.400Z,42.50
2019-05-06T16:13:05.880Z,42.70
2019-05-06T16:15:35.692Z,42.80
2019-05-06T16:18:05.512Z,43.10
2019-05-06T16:20:35.318Z,43.00
2019-05-06T16:23:19.898Z,42.90
2019-05-06T16:25:52.260Z,42.70
2019-05-06T16:28:22.472Z,42.80
2019-05-06T16:30:53.516Z,42.90
2019-05-06T16:33:23.740Z,43.50
2019-05-06T16:35:53.547Z,44.30
2019-05-06T16:38:23.303Z,44.40
2019-05-06T16:40:57.695Z,44.90
2019-05-06T16:43:26.031Z,45.40
2019-05-06T16:45:55.821Z,45.80
2019-05-06T16:48:25.573Z,46.20
2019-05-06T16:50:55.561Z,46.70
2019-05-06T16:53:25.335Z,46.80
2019-05-06T16:56:09.582Z,46.90
2019-05-06T16:58:46.669Z,47.20
2019-05-06T17:01:15.204Z,47.70
2019-05-06T17:03:56.888Z,47.70
2019-05-06T17:06:33.027Z,47.80
2019-05-06T17:09:17.482Z,47.80
2019-05-06T17:11:36.081Z,47.90
2019-05-06T17:14:07.442Z,48.20
2019-05-06T17:16:44.448Z,48.40
2019-05-06T17:19:22.997Z,47.90
2019-05-06T17:21:59.734Z,47.20
2019-05-06T17:24:29.469Z,47.30
2019-05-06T17:27:11.985Z,48.00
2019-05-06T17:30:12.708Z,47.00
2019-05-06T17:36:25.700Z,47.10
2019-05-06T17:39:13.111Z,47.30
2019-05-06T17:42:11.077Z,47.30
2019-05-06T17:44:42.877Z,47.60
2019-05-06T17:47:32.079Z,47.70
2019-05-06T17:50:09.362Z,47.90
2019-05-06T17:52:48.955Z,47.90
2019-05-06T17:55:28.808Z,48.10
2019-05-06T17:58:07.784Z,48.50
2019-05-06T18:00:37.569Z,49.00
2019-05-06T18:03:07.344Z,49.10
2019-05-06T18:05:44.129Z,49.10
2019-05-06T18:08:20.170Z,49.40
2019-05-06T18:10:55.804Z,49.50
2019-05-06T18:13:33.188Z,50.50
2019-05-06T18:16:12.954Z,49.90
2019-05-06T18:18:41.432Z,50.00
2019-05-06T18:21:12.311Z,50.10
2019-05-06T18:23:42.641Z,50.40
2019-05-06T18:26:12.450Z,50.50
2019-05-06T18:28:43.136Z,50.80
2019-05-06T18:31:12.901Z,51.00
2019-05-06T18:33:43.148Z,51.20
2019-05-06T18:36:13.476Z,51.40
2019-05-06T18:38:43.377Z,51.60
2019-05-06T18:41:13.136Z,51.70
2019-05-06T18:43:42.904Z,52.10
2019-05-06T18:46:12.711Z,52.00
2019-05-06T18:48:42.821Z,52.20
2019-05-06T18:51:12.746Z,52.30
2019-05-06T18:53:42.511Z,52.40
2019-05-06T18:56:12.742Z,52.80
2019-05-06T18:58:45.508Z,53.10
2019-05-06T19:01:15.255Z,53.40
2019-05-06T19:03:54.835Z,53.70
2019-05-06T19:06:24.560Z,54.10
2019-05-06T19:09:03.647Z,54.30
2019-05-06T19:11:33.405Z,54.80
2019-05-06T19:14:03.154Z,55.10
2019-05-06T19:16:48.195Z,55.40
2019-05-06T19:19:06.010Z,55.40
2019-05-06T19:21:35.869Z,55.70
2019-05-06T19:24:12.925Z,55.90
2019-05-06T19:26:46.210Z,56.40
2019-05-06T19:29:19.174Z,56.60
2019-05-06T19:31:52.163Z,56.60
2019-05-06T19:34:23.608Z,56.80
2019-05-06T19:37:02.429Z,56.70
2019-05-06T19:39:37.648Z,57.20
2019-05-06T19:42:12.889Z,57.40
2019-05-06T19:44:48.118Z,57.60
2019-05-06T19:47:27.041Z,58.00
2019-05-06T19:50:10.649Z,58.30
2019-05-06T19:52:50.304Z,58.50
2019-05-06T19:55:29.260Z,58.80
2019-05-06T19:57:58.980Z,59.20
2019-05-06T20:00:28.674Z,59.30
2019-05-06T20:02:58.365Z,59.60
2019-05-06T20:05:37.232Z,59.90
2019-05-06T20:08:16.629Z,60.20
2019-05-06T20:11:02.171Z,60.00
2019-05-06T20:13:32.312Z,60.80
2019-05-06T20:16:02.775Z,60.40
2019-05-06T20:18:35.883Z,61.10
2019-05-06T20:21:08.428Z,61.60
2019-05-06T20:23:39.680Z,62.20
2019-05-06T20:26:09.430Z,61.30
2019-05-06T20:28:39.179Z,62.00
2019-05-06T20:31:08.914Z,61.60
2019-05-06T20:33:38.629Z,59.80
2019-05-06T20:36:08.698Z,60.30
2019-05-06T20:38:38.399Z,59.30
2019-05-06T20:41:08.086Z,59.10
2019-05-06T20:43:37.862Z,58.70
2019-05-06T20:46:07.586Z,58.60
2019-05-06T20:48:37.549Z,58.50
2019-05-06T20:51:07.300Z,58.80
2019-05-06T20:53:39.863Z,59.00
2019-05-06T20:56:09.592Z,58.80
2019-05-06T20:58:39.376Z,58.90
2019-05-06T21:01:09.110Z,59.20
2019-05-06T21:03:38.975Z,59.30
2019-05-06T21:06:08.723Z,59.30
2019-05-06T21:08:42.198Z,59.40
2019-05-06T21:11:25.830Z,59.30
2019-05-06T21:13:43.723Z,59.50
2019-05-06T21:16:13.474Z,59.40
2019-05-06T21:18:43.181Z,59.60
2019-05-06T21:21:13.580Z,59.70
2019-05-06T21:24:10.031Z,60.00
2019-05-06T21:26:42.314Z,60.00
2019-05-06T21:29:12.743Z,60.70
2019-05-06T21:31:42.732Z,62.00
2019-05-06T21:34:12.926Z,61.20
2019-05-06T21:36:43.155Z,61.10
2019-05-06T21:39:13.212Z,61.10
2019-05-06T21:41:43.315Z,61.20
2019-05-06T21:44:13.421Z,61.60
2019-05-06T21:46:43.499Z,61.40
2019-05-06T21:49:13.260Z,61.70
2019-05-06T21:51:45.712Z,62.10
2019-05-06T21:54:15.525Z,61.90
2019-05-06T21:56:45.269Z,62.20
2019-05-06T21:59:15.017Z,62.70
2019-05-06T22:01:45.001Z,62.70
2019-05-06T22:04:14.733Z,63.30
2019-05-06T22:06:45.569Z,63.40
2019-05-06T22:09:15.531Z,63.60
2019-05-06T22:11:45.334Z,63.70
2019-05-06T22:14:15.051Z,64.00
2019-05-06T22:16:44.965Z,64.50
2019-05-06T22:19:14.763Z,65.00
2019-05-06T22:22:03.374Z,65.00
2019-05-06T22:24:54.980Z,65.00
2019-05-06T22:27:22.397Z,65.10
2019-05-06T22:29:52.387Z,65.50
2019-05-06T22:32:23.236Z,65.70
2019-05-06T22:34:53.028Z,65.70
2019-05-06T22:37:22.773Z,65.70
2019-05-06T22:39:52.835Z,65.70
2019-05-06T22:42:24.974Z,65.90
2019-05-06T22:44:54.172Z,66.10
2019-05-06T22:47:23.894Z,66.70
2019-05-06T22:49:54.367Z,67.20
2019-05-06T22:52:24.545Z,67.10
2019-05-06T22:54:54.283Z,67.30
2019-05-06T22:57:24.021Z,67.40
2019-05-06T22:59:53.750Z,67.80
2019-05-06T23:02:42.376Z,68.30
2019-05-06T23:05:12.385Z,68.60
2019-05-06T23:07:42.362Z,69.10
2019-05-06T23:10:13.291Z,69.50
2019-05-06T23:12:43.467Z,69.90
2019-05-06T23:15:13.275Z,70.20
2019-05-06T23:17:43.064Z,70.80
2019-05-06T23:20:12.755Z,71.20
2019-05-06T23:22:42.479Z,71.40
2019-05-06T23:25:13.812Z,71.20
2019-05-06T23:27:44.229Z,71.60
2019-05-06T23:30:14.470Z,71.90
2019-05-06T23:32:44.186Z,72.30
2019-05-06T23:35:14.048Z,72.50
2019-05-06T23:38:19.224Z,72.90
2019-05-06T23:41:24.818Z,73.10
2019-05-06T23:44:43.102Z,73.40
2019-05-06T23:47:36.885Z,74.10
2019-05-06T23:50:42.874Z,75.00
2019-05-06T23:53:48.320Z,75.30
2019-05-06T23:56:43.245Z,76.10
2019-05-06T23:59:15.740Z,76.30
